OAL621 FIMP-FMMI
Flight info
| Callsign | OAL621 |
|---|---|
| Flight time | 1h 38m |
| Altitude | 43000 |
| Route | RASMA UA400 TE |
| Aircraft | C750/M-SBDE3FGHRWXY/S |
Departure
| Time | 2026-04-28 18:14 |
|---|---|
| Airport | Sir Seewoosagur Ramgoolam International Airport (FIMP) |
Arrival
| Time | 2026-04-28 19:53 |
|---|---|
| Airport | Ivato International Airport (FMMI) |
| Time | Latitude | Longitude | Altitude | Speed | Heading |
|---|---|---|---|---|---|
| 2026-04-28 17:31 | -20.43462 | 57.68553 | 136 ft | 0 kts | 207° |
| 2026-04-28 18:10 | -20.43465 | 57.68552 | 109 ft | 2 kts | 207° |
| 2026-04-28 18:10 | -20.43478 | 57.68544 | 136 ft | 5 kts | 211° |
| 2026-04-28 18:10 | -20.43471 | 57.68530 | 137 ft | 5 kts | 317° |
| 2026-04-28 18:10 | -20.43439 | 57.68524 | 137 ft | 8 kts | 9° |
| 2026-04-28 18:11 | -20.43363 | 57.68557 | 138 ft | 15 kts | 26° |
| 2026-04-28 18:11 | -20.43354 | 57.68643 | 135 ft | 12 kts | 103° |
| 2026-04-28 18:11 | -20.43390 | 57.68728 | 133 ft | 14 kts | 119° |
| 2026-04-28 18:11 | -20.43449 | 57.68848 | 129 ft | 20 kts | 117° |
| 2026-04-28 18:12 | -20.43516 | 57.68984 | 124 ft | 23 kts | 117° |
| 2026-04-28 18:12 | -20.43589 | 57.69138 | 120 ft | 24 kts | 117° |
| 2026-04-28 18:12 | -20.43665 | 57.69295 | 115 ft | 24 kts | 118° |
| 2026-04-28 18:12 | -20.43744 | 57.69458 | 110 ft | 25 kts | 117° |
| 2026-04-28 18:13 | -20.43825 | 57.69624 | 104 ft | 24 kts | 117° |
| 2026-04-28 18:13 | -20.43818 | 57.69725 | 103 ft | 10 kts | 33° |
| 2026-04-28 18:13 | -20.43765 | 57.69756 | 104 ft | 8 kts | 27° |
| 2026-04-28 18:13 | -20.43713 | 57.69768 | 105 ft | 8 kts | 343° |
| 2026-04-28 18:14 | -20.43684 | 57.69720 | 106 ft | 10 kts | 298° |
| 2026-04-28 18:14 | -20.43521 | 57.69382 | 113 ft | 108 kts | 298° |
| 2026-04-28 18:14 | -20.43063 | 57.68438 | 257 ft | 163 kts | 297° |
| 2026-04-28 18:14 | -20.42529 | 57.67359 | 1029 ft | 165 kts | 302° |
| 2026-04-28 18:15 | -20.42006 | 57.66306 | 1777 ft | 168 kts | 301° |
| 2026-04-28 18:15 | -20.41471 | 57.65136 | 1912 ft | 180 kts | 300° |
| 2026-04-28 18:15 | -20.40907 | 57.63936 | 1548 ft | 185 kts | 301° |
| 2026-04-28 18:15 | -20.40316 | 57.62711 | 1323 ft | 180 kts | 300° |
| 2026-04-28 18:16 | -20.39723 | 57.61482 | 1634 ft | 189 kts | 300° |
| 2026-04-28 18:16 | -20.39150 | 57.60284 | 2613 ft | 179 kts | 301° |
| 2026-04-28 18:16 | -20.38573 | 57.59088 | 3264 ft | 184 kts | 301° |
| 2026-04-28 18:16 | -20.37983 | 57.57860 | 3923 ft | 189 kts | 301° |
| 2026-04-28 18:17 | -20.37382 | 57.56610 | 4633 ft | 189 kts | 300° |
| 2026-04-28 18:17 | -20.36784 | 57.55364 | 5343 ft | 188 kts | 300° |
| 2026-04-28 18:17 | -20.36193 | 57.54122 | 6040 ft | 189 kts | 298° |
| 2026-04-28 18:17 | -20.35955 | 57.52709 | 6611 ft | 196 kts | 276° |
| 2026-04-28 18:18 | -20.35838 | 57.51272 | 7314 ft | 195 kts | 279° |
| 2026-04-28 18:18 | -20.35686 | 57.49853 | 8016 ft | 195 kts | 278° |
| 2026-04-28 18:18 | -20.35537 | 57.48405 | 8715 ft | 200 kts | 279° |
| 2026-04-28 18:18 | -20.35432 | 57.47370 | 8965 ft | 217 kts | 278° |
| 2026-04-28 18:19 | -20.35203 | 57.45090 | 9329 ft | 250 kts | 277° |
| 2026-04-28 18:19 | -20.35009 | 57.43142 | 9711 ft | 278 kts | 277° |
| 2026-04-28 18:19 | -20.34795 | 57.41000 | 10077 ft | 302 kts | 277° |
| 2026-04-28 18:19 | -20.34560 | 57.38677 | 10340 ft | 328 kts | 277° |
| 2026-04-28 18:20 | -20.34308 | 57.36164 | 10512 ft | 353 kts | 277° |
| 2026-04-28 18:20 | -20.34044 | 57.33528 | 11176 ft | 358 kts | 277° |
| 2026-04-28 18:20 | -20.33778 | 57.30880 | 11928 ft | 361 kts | 277° |
| 2026-04-28 18:20 | -20.33506 | 57.28199 | 12630 ft | 366 kts | 277° |
| 2026-04-28 18:21 | -20.33231 | 57.25489 | 13332 ft | 370 kts | 276° |
| 2026-04-28 18:21 | -20.32953 | 57.22747 | 14005 ft | 374 kts | 276° |
| 2026-04-28 18:21 | -20.32672 | 57.19980 | 14658 ft | 376 kts | 276° |
| 2026-04-28 18:21 | -20.32389 | 57.17202 | 15321 ft | 379 kts | 276° |
| 2026-04-28 18:22 | -20.32108 | 57.14440 | 15997 ft | 380 kts | 276° |
| 2026-04-28 18:22 | -20.31821 | 57.11635 | 16719 ft | 382 kts | 276° |
| 2026-04-28 18:22 | -20.31532 | 57.08802 | 17347 ft | 387 kts | 276° |
| 2026-04-28 18:22 | -20.31240 | 57.05952 | 18106 ft | 388 kts | 276° |
| 2026-04-28 18:23 | -20.30944 | 57.03063 | 18668 ft | 394 kts | 276° |
| 2026-04-28 18:23 | -20.30645 | 57.00157 | 19361 ft | 395 kts | 276° |
| 2026-04-28 18:23 | -20.30346 | 56.97238 | 20019 ft | 399 kts | 276° |
| 2026-04-28 18:23 | -20.30041 | 56.94287 | 20684 ft | 402 kts | 276° |
| 2026-04-28 18:24 | -20.29734 | 56.91312 | 21337 ft | 405 kts | 276° |
| 2026-04-28 18:24 | -20.29529 | 56.89327 | 21775 ft | 408 kts | 276° |
| 2026-04-28 18:24 | -20.29111 | 56.85292 | 22670 ft | 412 kts | 276° |
| 2026-04-28 18:24 | -20.28795 | 56.82245 | 23330 ft | 415 kts | 276° |
| 2026-04-28 18:25 | -20.28480 | 56.79215 | 23898 ft | 419 kts | 276° |
| 2026-04-28 18:25 | -20.28156 | 56.76115 | 24391 ft | 423 kts | 276° |
| 2026-04-28 18:25 | -20.27830 | 56.72978 | 24877 ft | 428 kts | 275° |
| 2026-04-28 18:26 | -20.27163 | 56.66602 | 25863 ft | 437 kts | 275° |
| 2026-04-28 18:26 | -20.26823 | 56.63361 | 26346 ft | 442 kts | 275° |
| 2026-04-28 18:26 | -20.26480 | 56.60087 | 26838 ft | 446 kts | 274° |
| 2026-04-28 18:26 | -20.26132 | 56.56781 | 27318 ft | 451 kts | 274° |
| 2026-04-28 18:27 | -20.25784 | 56.53484 | 27748 ft | 457 kts | 274° |
| 2026-04-28 18:27 | -20.25427 | 56.50100 | 28227 ft | 461 kts | 274° |
| 2026-04-28 18:27 | -20.25065 | 56.46680 | 28696 ft | 466 kts | 273° |
| 2026-04-28 18:27 | -20.24700 | 56.43231 | 29156 ft | 470 kts | 273° |
| 2026-04-28 18:28 | -20.24330 | 56.39752 | 29603 ft | 475 kts | 273° |
| 2026-04-28 18:28 | -20.23956 | 56.36234 | 30032 ft | 479 kts | 273° |
| 2026-04-28 18:28 | -20.23582 | 56.32735 | 30407 ft | 483 kts | 273° |
| 2026-04-28 18:28 | -20.23201 | 56.29168 | 30806 ft | 485 kts | 272° |
| 2026-04-28 18:29 | -20.22818 | 56.25597 | 31333 ft | 485 kts | 272° |
| 2026-04-28 18:29 | -20.22435 | 56.22040 | 31970 ft | 482 kts | 272° |
| 2026-04-28 18:29 | -20.22055 | 56.18499 | 32550 ft | 481 kts | 271° |
| 2026-04-28 18:29 | -20.21675 | 56.14959 | 33150 ft | 479 kts | 271° |
| 2026-04-28 18:30 | -20.21295 | 56.11440 | 33759 ft | 477 kts | 271° |
| 2026-04-28 18:30 | -20.21172 | 56.10305 | 33958 ft | 477 kts | 271° |
| 2026-04-28 18:30 | -20.20538 | 56.04445 | 34899 ft | 473 kts | 271° |
| 2026-04-28 18:30 | -20.20097 | 56.01015 | 35459 ft | 471 kts | 273° |
| 2026-04-28 18:31 | -20.19617 | 55.97579 | 36050 ft | 468 kts | 272° |
| 2026-04-28 18:31 | -20.19152 | 55.94161 | 36642 ft | 465 kts | 272° |
| 2026-04-28 18:31 | -20.18689 | 55.90764 | 37247 ft | 462 kts | 272° |
| 2026-04-28 18:31 | -20.18220 | 55.87391 | 37852 ft | 459 kts | 272° |
| 2026-04-28 18:32 | -20.17753 | 55.84038 | 38482 ft | 456 kts | 272° |
| 2026-04-28 18:32 | -20.17291 | 55.80701 | 39018 ft | 453 kts | 272° |
| 2026-04-28 18:32 | -20.16989 | 55.78507 | 39336 ft | 452 kts | 272° |
| 2026-04-28 18:32 | -20.16531 | 55.75201 | 39810 ft | 451 kts | 273° |
| 2026-04-28 18:33 | -20.16070 | 55.71899 | 40295 ft | 450 kts | 273° |
| 2026-04-28 18:33 | -20.15611 | 55.68608 | 40774 ft | 449 kts | 273° |
| 2026-04-28 18:33 | -20.15153 | 55.65321 | 41254 ft | 448 kts | 274° |
| 2026-04-28 18:33 | -20.14695 | 55.62045 | 41723 ft | 447 kts | 274° |
| 2026-04-28 18:34 | -20.14237 | 55.58770 | 42176 ft | 446 kts | 274° |
| 2026-04-28 18:34 | -20.13779 | 55.55503 | 42616 ft | 445 kts | 274° |
| 2026-04-28 18:34 | -20.13323 | 55.52243 | 42952 ft | 447 kts | 274° |
| 2026-04-28 18:35 | -20.12395 | 55.45614 | 42938 ft | 464 kts | 274° |
| 2026-04-28 18:35 | -20.11419 | 55.38708 | 42952 ft | 479 kts | 275° |
| 2026-04-28 18:36 | -20.10411 | 55.31568 | 42948 ft | 494 kts | 275° |
| 2026-04-28 18:36 | -20.09901 | 55.27996 | 42937 ft | 483 kts | 275° |
| 2026-04-28 18:36 | -20.09396 | 55.24440 | 42932 ft | 489 kts | 275° |
| 2026-04-28 18:37 | -20.08375 | 55.17219 | 42936 ft | 496 kts | 275° |
| 2026-04-28 18:37 | -20.07339 | 55.09985 | 42942 ft | 498 kts | 275° |
| 2026-04-28 18:38 | -20.06299 | 55.02702 | 42951 ft | 498 kts | 275° |
| 2026-04-28 18:38 | -20.05252 | 54.95416 | 42942 ft | 497 kts | 275° |
| 2026-04-28 18:39 | -20.04212 | 54.88186 | 42939 ft | 497 kts | 275° |
| 2026-04-28 18:39 | -20.03161 | 54.80910 | 42940 ft | 497 kts | 275° |
| 2026-04-28 18:40 | -20.02105 | 54.73622 | 42935 ft | 497 kts | 275° |
| 2026-04-28 18:40 | -20.01058 | 54.66414 | 42935 ft | 496 kts | 275° |
| 2026-04-28 18:41 | -19.99999 | 54.59142 | 42936 ft | 496 kts | 275° |
| 2026-04-28 18:41 | -19.98938 | 54.51880 | 42942 ft | 496 kts | 275° |
| 2026-04-28 18:42 | -19.97884 | 54.44687 | 42941 ft | 495 kts | 275° |
| 2026-04-28 18:42 | -19.96822 | 54.37455 | 42940 ft | 494 kts | 275° |
| 2026-04-28 18:43 | -19.95756 | 54.30223 | 42943 ft | 494 kts | 275° |
| 2026-04-28 18:43 | -19.94689 | 54.22998 | 42940 ft | 494 kts | 275° |
| 2026-04-28 18:44 | -19.93625 | 54.15825 | 42941 ft | 494 kts | 275° |
| 2026-04-28 18:44 | -19.92015 | 54.05006 | 42941 ft | 494 kts | 276° |
| 2026-04-28 18:45 | -19.90939 | 53.97796 | 42933 ft | 493 kts | 276° |
| 2026-04-28 18:45 | -19.89859 | 53.90581 | 42930 ft | 494 kts | 276° |
| 2026-04-28 18:46 | -19.88782 | 53.83408 | 42932 ft | 494 kts | 276° |
| 2026-04-28 18:46 | -19.87694 | 53.76186 | 42941 ft | 494 kts | 276° |
| 2026-04-28 18:47 | -19.86608 | 53.68989 | 42938 ft | 498 kts | 276° |
| 2026-04-28 18:47 | -19.85505 | 53.61711 | 42946 ft | 499 kts | 276° |
| 2026-04-28 18:48 | -19.84396 | 53.54403 | 42947 ft | 502 kts | 276° |
| 2026-04-28 18:48 | -19.83279 | 53.47071 | 42945 ft | 502 kts | 276° |
| 2026-04-28 18:49 | -19.82347 | 53.40971 | 42943 ft | 503 kts | 276° |
| 2026-04-28 18:49 | -19.81042 | 53.32446 | 42946 ft | 503 kts | 276° |
| 2026-04-28 18:50 | -19.79917 | 53.25122 | 42942 ft | 503 kts | 276° |
| 2026-04-28 18:50 | -19.78788 | 53.17792 | 42939 ft | 501 kts | 276° |
| 2026-04-28 18:51 | -19.77657 | 53.10463 | 42936 ft | 503 kts | 276° |
| 2026-04-28 18:51 | -19.76522 | 53.03135 | 42936 ft | 502 kts | 276° |
| 2026-04-28 18:52 | -19.75392 | 52.95862 | 42929 ft | 502 kts | 276° |
| 2026-04-28 18:52 | -19.74252 | 52.88541 | 42930 ft | 502 kts | 276° |
| 2026-04-28 18:53 | -19.73107 | 52.81210 | 42935 ft | 502 kts | 276° |
| 2026-04-28 18:53 | -19.71970 | 52.73944 | 42931 ft | 502 kts | 276° |
| 2026-04-28 18:54 | -19.70821 | 52.66627 | 42931 ft | 502 kts | 276° |
| 2026-04-28 18:54 | -19.69667 | 52.59297 | 42935 ft | 502 kts | 276° |
| 2026-04-28 18:55 | -19.68708 | 52.53222 | 42929 ft | 502 kts | 276° |
| 2026-04-28 18:55 | -19.67359 | 52.44700 | 42935 ft | 503 kts | 277° |
| 2026-04-28 18:56 | -19.66197 | 52.37376 | 42935 ft | 503 kts | 277° |
| 2026-04-28 18:56 | -19.65031 | 52.30052 | 42936 ft | 503 kts | 277° |
| 2026-04-28 18:57 | -19.63869 | 52.22770 | 42931 ft | 503 kts | 277° |
| 2026-04-28 18:57 | -19.62699 | 52.15456 | 42934 ft | 503 kts | 277° |
| 2026-04-28 18:58 | -19.61526 | 52.08146 | 42931 ft | 503 kts | 277° |
| 2026-04-28 18:58 | -19.60348 | 52.00821 | 42934 ft | 504 kts | 277° |
| 2026-04-28 18:59 | -19.59166 | 51.93496 | 42932 ft | 503 kts | 277° |
| 2026-04-28 18:59 | -19.57983 | 51.86177 | 42935 ft | 503 kts | 277° |
| 2026-04-28 19:00 | -19.56804 | 51.78908 | 42934 ft | 503 kts | 277° |
| 2026-04-28 19:00 | -19.55616 | 51.71598 | 42933 ft | 503 kts | 277° |
| 2026-04-28 19:01 | -19.54423 | 51.64280 | 42935 ft | 503 kts | 277° |
| 2026-04-28 19:01 | -19.53229 | 51.56975 | 42930 ft | 503 kts | 277° |
| 2026-04-28 19:02 | -19.52032 | 51.49667 | 42930 ft | 503 kts | 277° |
| 2026-04-28 19:02 | -19.50830 | 51.42352 | 42930 ft | 503 kts | 277° |
| 2026-04-28 19:03 | -19.49635 | 51.35091 | 42933 ft | 503 kts | 277° |
| 2026-04-28 19:03 | -19.48428 | 51.27783 | 42967 ft | 502 kts | 277° |
| 2026-04-28 19:04 | -19.47219 | 51.20482 | 42967 ft | 502 kts | 277° |
| 2026-04-28 19:04 | -19.46009 | 51.13187 | 42967 ft | 502 kts | 277° |
| 2026-04-28 19:05 | -19.44803 | 51.05943 | 42968 ft | 502 kts | 277° |
| 2026-04-28 19:05 | -19.43587 | 50.98651 | 42968 ft | 502 kts | 277° |
| 2026-04-28 19:06 | -19.42573 | 50.92588 | 42968 ft | 502 kts | 278° |
| 2026-04-28 19:06 | -19.41144 | 50.84062 | 42964 ft | 502 kts | 278° |
| 2026-04-28 19:07 | -19.39928 | 50.76827 | 42965 ft | 502 kts | 278° |
| 2026-04-28 19:07 | -19.38699 | 50.69534 | 42964 ft | 502 kts | 278° |
| 2026-04-28 19:08 | -19.37466 | 50.62236 | 42966 ft | 502 kts | 278° |
| 2026-04-28 19:08 | -19.36231 | 50.54945 | 42966 ft | 502 kts | 278° |
| 2026-04-28 19:09 | -19.35001 | 50.47701 | 42963 ft | 502 kts | 278° |
| 2026-04-28 19:09 | -19.33759 | 50.40403 | 42966 ft | 502 kts | 278° |
| 2026-04-28 19:10 | -19.32516 | 50.33116 | 42966 ft | 502 kts | 278° |
| 2026-04-28 19:10 | -19.31279 | 50.25887 | 42967 ft | 502 kts | 278° |
| 2026-04-28 19:11 | -19.30037 | 50.18647 | 42958 ft | 493 kts | 278° |
| 2026-04-28 19:11 | -19.28807 | 50.11483 | 42961 ft | 495 kts | 278° |
| 2026-04-28 19:12 | -19.27568 | 50.04306 | 42968 ft | 495 kts | 278° |
| 2026-04-28 19:12 | -19.26330 | 49.97148 | 42964 ft | 482 kts | 278° |
| 2026-04-28 19:13 | -19.25735 | 49.93734 | 42962 ft | 464 kts | 278° |
| 2026-04-28 19:13 | -19.25155 | 49.90373 | 42963 ft | 466 kts | 278° |
| 2026-04-28 19:13 | -19.23993 | 49.83669 | 42969 ft | 466 kts | 278° |
| 2026-04-28 19:14 | -19.22818 | 49.76929 | 42966 ft | 466 kts | 278° |
| 2026-04-28 19:14 | -19.22235 | 49.73587 | 42960 ft | 453 kts | 278° |
| 2026-04-28 19:14 | -19.21669 | 49.70355 | 42955 ft | 440 kts | 278° |
| 2026-04-28 19:15 | -19.20557 | 49.63970 | 42966 ft | 442 kts | 278° |
| 2026-04-28 19:15 | -19.19622 | 49.58647 | 42965 ft | 443 kts | 278° |
| 2026-04-28 19:16 | -19.18331 | 49.51306 | 42960 ft | 420 kts | 278° |
| 2026-04-28 19:16 | -19.17805 | 49.48320 | 42956 ft | 404 kts | 278° |
| 2026-04-28 19:16 | -19.17294 | 49.45417 | 42955 ft | 390 kts | 278° |
| 2026-04-28 19:17 | -19.16327 | 49.39923 | 42958 ft | 367 kts | 278° |
| 2026-04-28 19:17 | -19.15410 | 49.34724 | 42959 ft | 356 kts | 277° |
| 2026-04-28 19:18 | -19.14498 | 49.29564 | 42962 ft | 356 kts | 277° |
| 2026-04-28 19:18 | -19.13597 | 49.24481 | 42971 ft | 351 kts | 277° |
| 2026-04-28 19:19 | -19.13153 | 49.21990 | 42972 ft | 339 kts | 277° |
| 2026-04-28 19:19 | -19.12720 | 49.19544 | 42976 ft | 338 kts | 277° |
| 2026-04-28 19:19 | -19.11863 | 49.14734 | 42970 ft | 320 kts | 277° |
| 2026-04-28 19:20 | -19.11458 | 49.12464 | 42883 ft | 309 kts | 277° |
| 2026-04-28 19:20 | -19.11064 | 49.10233 | 42525 ft | 307 kts | 277° |
| 2026-04-28 19:20 | -19.10675 | 49.08044 | 42127 ft | 305 kts | 277° |
| 2026-04-28 19:20 | -19.10284 | 49.05859 | 41889 ft | 295 kts | 277° |
| 2026-04-28 19:21 | -19.09907 | 49.03758 | 41628 ft | 287 kts | 277° |
| 2026-04-28 19:21 | -19.09544 | 49.01724 | 41289 ft | 279 kts | 277° |
| 2026-04-28 19:21 | -19.09192 | 48.99745 | 40425 ft | 273 kts | 276° |
| 2026-04-28 19:21 | -19.08839 | 48.97763 | 39566 ft | 277 kts | 276° |
| 2026-04-28 19:22 | -19.08603 | 48.96447 | 39457 ft | 270 kts | 276° |
| 2026-04-28 19:22 | -19.08373 | 48.95177 | 39380 ft | 262 kts | 276° |
| 2026-04-28 19:22 | -19.07922 | 48.92649 | 38907 ft | 261 kts | 276° |
| 2026-04-28 19:22 | -19.07476 | 48.90152 | 38445 ft | 259 kts | 276° |
| 2026-04-28 19:23 | -19.07139 | 48.88282 | 38065 ft | 258 kts | 276° |
| 2026-04-28 19:23 | -19.06914 | 48.87027 | 37811 ft | 257 kts | 276° |
| 2026-04-28 19:23 | -19.06582 | 48.85179 | 37451 ft | 255 kts | 276° |
| 2026-04-28 19:23 | -19.06253 | 48.83344 | 37087 ft | 254 kts | 276° |
| 2026-04-28 19:24 | -19.05928 | 48.81540 | 36747 ft | 252 kts | 276° |
| 2026-04-28 19:24 | -19.05603 | 48.79727 | 36416 ft | 250 kts | 276° |
| 2026-04-28 19:24 | -19.05277 | 48.77921 | 36081 ft | 249 kts | 276° |
| 2026-04-28 19:24 | -19.04954 | 48.76127 | 35749 ft | 248 kts | 276° |
| 2026-04-28 19:25 | -19.04632 | 48.74342 | 35419 ft | 246 kts | 276° |
| 2026-04-28 19:25 | -19.04312 | 48.72566 | 35121 ft | 245 kts | 276° |
| 2026-04-28 19:25 | -19.03994 | 48.70799 | 34803 ft | 243 kts | 276° |
| 2026-04-28 19:25 | -19.03677 | 48.69044 | 34492 ft | 242 kts | 276° |
| 2026-04-28 19:26 | -19.03366 | 48.67322 | 34186 ft | 241 kts | 276° |
| 2026-04-28 19:26 | -19.03052 | 48.65584 | 33853 ft | 240 kts | 275° |
| 2026-04-28 19:26 | -19.02739 | 48.63854 | 33509 ft | 239 kts | 275° |
| 2026-04-28 19:26 | -19.02428 | 48.62130 | 33149 ft | 238 kts | 275° |
| 2026-04-28 19:27 | -19.02117 | 48.60413 | 32815 ft | 237 kts | 275° |
| 2026-04-28 19:27 | -19.01807 | 48.58702 | 32486 ft | 236 kts | 275° |
| 2026-04-28 19:27 | -19.01498 | 48.56996 | 32155 ft | 236 kts | 274° |
| 2026-04-28 19:27 | -19.01190 | 48.55298 | 31839 ft | 235 kts | 274° |
| 2026-04-28 19:28 | -19.00886 | 48.53623 | 31528 ft | 234 kts | 274° |
| 2026-04-28 19:28 | -19.00580 | 48.51933 | 31223 ft | 233 kts | 274° |
| 2026-04-28 19:28 | -19.00274 | 48.50250 | 30916 ft | 233 kts | 274° |
| 2026-04-28 19:28 | -18.99968 | 48.48569 | 30617 ft | 232 kts | 273° |
| 2026-04-28 19:29 | -18.99664 | 48.46898 | 30343 ft | 231 kts | 273° |
| 2026-04-28 19:29 | -18.99463 | 48.45789 | 30103 ft | 232 kts | 273° |
| 2026-04-28 19:29 | -18.99052 | 48.43509 | 29440 ft | 240 kts | 273° |
| 2026-04-28 19:29 | -18.98735 | 48.41790 | 29081 ft | 238 kts | 274° |
| 2026-04-28 19:30 | -18.98419 | 48.40046 | 28552 ft | 244 kts | 274° |
| 2026-04-28 19:30 | -18.98098 | 48.38285 | 28205 ft | 243 kts | 274° |
| 2026-04-28 19:30 | -18.97776 | 48.36522 | 27677 ft | 248 kts | 274° |
| 2026-04-28 19:30 | -18.97447 | 48.34708 | 27202 ft | 252 kts | 274° |
| 2026-04-28 19:31 | -18.97114 | 48.32901 | 26838 ft | 250 kts | 274° |
| 2026-04-28 19:31 | -18.96784 | 48.31099 | 26455 ft | 249 kts | 274° |
| 2026-04-28 19:31 | -18.96458 | 48.29313 | 26232 ft | 243 kts | 275° |
| 2026-04-28 19:31 | -18.96132 | 48.27514 | 26357 ft | 256 kts | 274° |
| 2026-04-28 19:32 | -18.95797 | 48.25668 | 26341 ft | 258 kts | 275° |
| 2026-04-28 19:32 | -18.95452 | 48.23818 | 26310 ft | 256 kts | 275° |
| 2026-04-28 19:32 | -18.95082 | 48.21969 | 26265 ft | 254 kts | 278° |
| 2026-04-28 19:32 | -18.94682 | 48.20143 | 25766 ft | 256 kts | 276° |
| 2026-04-28 19:33 | -18.94332 | 48.18298 | 25347 ft | 256 kts | 276° |
| 2026-04-28 19:33 | -18.93963 | 48.16488 | 24969 ft | 254 kts | 277° |
| 2026-04-28 19:33 | -18.93574 | 48.14661 | 24577 ft | 253 kts | 277° |
| 2026-04-28 19:33 | -18.93191 | 48.12841 | 24128 ft | 256 kts | 277° |
| 2026-04-28 19:34 | -18.92807 | 48.10988 | 23578 ft | 262 kts | 277° |
| 2026-04-28 19:34 | -18.92413 | 48.09103 | 22981 ft | 265 kts | 278° |
| 2026-04-28 19:34 | -18.92014 | 48.07210 | 22502 ft | 262 kts | 278° |
| 2026-04-28 19:34 | -18.91620 | 48.05333 | 22040 ft | 260 kts | 278° |
| 2026-04-28 19:35 | -18.91231 | 48.03476 | 21565 ft | 258 kts | 278° |
| 2026-04-28 19:35 | -18.90842 | 48.01613 | 21184 ft | 260 kts | 278° |
| 2026-04-28 19:35 | -18.90442 | 47.99694 | 20935 ft | 270 kts | 279° |
| 2026-04-28 19:35 | -18.90027 | 47.97721 | 20695 ft | 280 kts | 279° |
| 2026-04-28 19:36 | -18.89610 | 47.95746 | 20467 ft | 278 kts | 279° |
| 2026-04-28 19:36 | -18.89189 | 47.93752 | 20218 ft | 278 kts | 279° |
| 2026-04-28 19:36 | -18.88772 | 47.91762 | 19949 ft | 277 kts | 279° |
| 2026-04-28 19:36 | -18.88354 | 47.89774 | 19651 ft | 276 kts | 279° |
| 2026-04-28 19:37 | -18.87938 | 47.87803 | 19359 ft | 276 kts | 279° |
| 2026-04-28 19:37 | -18.87661 | 47.86484 | 19164 ft | 279 kts | 279° |
| 2026-04-28 19:37 | -18.87101 | 47.83828 | 18626 ft | 274 kts | 279° |
| 2026-04-28 19:37 | -18.86686 | 47.81860 | 17916 ft | 275 kts | 280° |
| 2026-04-28 19:38 | -18.86271 | 47.79892 | 17292 ft | 272 kts | 280° |
| 2026-04-28 19:38 | -18.85866 | 47.77978 | 16988 ft | 266 kts | 281° |
| 2026-04-28 19:38 | -18.85458 | 47.76040 | 16862 ft | 270 kts | 281° |
| 2026-04-28 19:38 | -18.85046 | 47.74094 | 16722 ft | 271 kts | 281° |
| 2026-04-28 19:39 | -18.84636 | 47.72153 | 16583 ft | 270 kts | 281° |
| 2026-04-28 19:39 | -18.84225 | 47.70211 | 16446 ft | 270 kts | 281° |
| 2026-04-28 19:39 | -18.83815 | 47.68276 | 16206 ft | 270 kts | 281° |
| 2026-04-28 19:39 | -18.83404 | 47.66338 | 15859 ft | 269 kts | 281° |
| 2026-04-28 19:40 | -18.83002 | 47.64441 | 15496 ft | 262 kts | 282° |
| 2026-04-28 19:40 | -18.82606 | 47.62569 | 15105 ft | 261 kts | 282° |
| 2026-04-28 19:40 | -18.82215 | 47.60727 | 14689 ft | 259 kts | 282° |
| 2026-04-28 19:40 | -18.81818 | 47.58854 | 14277 ft | 257 kts | 283° |
| 2026-04-28 19:41 | -18.81428 | 47.57019 | 13859 ft | 255 kts | 283° |
| 2026-04-28 19:41 | -18.81047 | 47.55225 | 13405 ft | 252 kts | 283° |
| 2026-04-28 19:41 | -18.80664 | 47.53425 | 12956 ft | 249 kts | 283° |
| 2026-04-28 19:41 | -18.80308 | 47.51651 | 12496 ft | 245 kts | 279° |
| 2026-04-28 19:42 | -18.80076 | 47.49877 | 12048 ft | 243 kts | 279° |
| 2026-04-28 19:42 | -18.79780 | 47.48128 | 11617 ft | 240 kts | 279° |
| 2026-04-28 19:42 | -18.79501 | 47.46397 | 11188 ft | 237 kts | 278° |
| 2026-04-28 19:42 | -18.79333 | 47.45263 | 10907 ft | 234 kts | 278° |
| 2026-04-28 19:43 | -18.78999 | 47.43009 | 10350 ft | 230 kts | 278° |
| 2026-04-28 19:43 | -18.78752 | 47.41373 | 9928 ft | 227 kts | 278° |
| 2026-04-28 19:43 | -18.78503 | 47.39733 | 9467 ft | 226 kts | 278° |
| 2026-04-28 19:43 | -18.78256 | 47.38099 | 9026 ft | 224 kts | 278° |
| 2026-04-28 19:44 | -18.78011 | 47.36479 | 8584 ft | 223 kts | 278° |
| 2026-04-28 19:44 | -18.77770 | 47.34886 | 8499 ft | 219 kts | 278° |
| 2026-04-28 19:44 | -18.77527 | 47.33283 | 8589 ft | 223 kts | 278° |
| 2026-04-28 19:44 | -18.77282 | 47.31666 | 8597 ft | 224 kts | 278° |
| 2026-04-28 19:45 | -18.77040 | 47.30072 | 8592 ft | 223 kts | 278° |
| 2026-04-28 19:45 | -18.76788 | 47.28404 | 8543 ft | 228 kts | 278° |
| 2026-04-28 19:45 | -18.76538 | 47.26759 | 7844 ft | 230 kts | 278° |
| 2026-04-28 19:45 | -18.76278 | 47.25045 | 7203 ft | 236 kts | 278° |
| 2026-04-28 19:46 | -18.76023 | 47.23366 | 7004 ft | 228 kts | 278° |
| 2026-04-28 19:46 | -18.75837 | 47.21696 | 6972 ft | 230 kts | 269° |
| 2026-04-28 19:46 | -18.76367 | 47.20164 | 6962 ft | 215 kts | 234° |
| 2026-04-28 19:46 | -18.77504 | 47.19179 | 6974 ft | 213 kts | 205° |
| 2026-04-28 19:47 | -18.78933 | 47.18933 | 6981 ft | 213 kts | 175° |
| 2026-04-28 19:47 | -18.80306 | 47.19477 | 6985 ft | 214 kts | 146° |
| 2026-04-28 19:47 | -18.81236 | 47.20679 | 6987 ft | 214 kts | 115° |
| 2026-04-28 19:47 | -18.81467 | 47.22221 | 6993 ft | 215 kts | 85° |
| 2026-04-28 19:48 | -18.80933 | 47.23681 | 6999 ft | 215 kts | 57° |
| 2026-04-28 19:48 | -18.80050 | 47.24968 | 7024 ft | 216 kts | 54° |
| 2026-04-28 19:48 | -18.79167 | 47.26247 | 7018 ft | 216 kts | 54° |
| 2026-04-28 19:48 | -18.78287 | 47.27533 | 7016 ft | 216 kts | 54° |
| 2026-04-28 19:49 | -18.77427 | 47.28834 | 7006 ft | 215 kts | 58° |
| 2026-04-28 19:49 | -18.77102 | 47.30347 | 6974 ft | 215 kts | 92° |
| 2026-04-28 19:49 | -18.77312 | 47.31872 | 6869 ft | 212 kts | 100° |
| 2026-04-28 19:49 | -18.77546 | 47.33403 | 6611 ft | 210 kts | 99° |
| 2026-04-28 19:50 | -18.77932 | 47.36009 | 6137 ft | 164 kts | 99° |
| 2026-04-28 19:50 | -18.78107 | 47.37184 | 5938 ft | 161 kts | 99° |
| 2026-04-28 19:50 | -18.78276 | 47.38321 | 5733 ft | 151 kts | 99° |
| 2026-04-28 19:51 | -18.78434 | 47.39387 | 5548 ft | 144 kts | 99° |
| 2026-04-28 19:51 | -18.78588 | 47.40426 | 5368 ft | 143 kts | 99° |
| 2026-04-28 19:51 | -18.78737 | 47.41423 | 5194 ft | 135 kts | 99° |
| 2026-04-28 19:51 | -18.78884 | 47.42415 | 5014 ft | 137 kts | 99° |
| 2026-04-28 19:52 | -18.79032 | 47.43407 | 4823 ft | 137 kts | 99° |
| 2026-04-28 19:52 | -18.79180 | 47.44404 | 4636 ft | 141 kts | 99° |
| 2026-04-28 19:52 | -18.79336 | 47.45443 | 4402 ft | 147 kts | 100° |
| 2026-04-28 19:52 | -18.79486 | 47.46505 | 4234 ft | 144 kts | 99° |
| 2026-04-28 19:53 | -18.79635 | 47.47509 | 4176 ft | 130 kts | 100° |
| 2026-04-28 19:53 | -18.79732 | 47.48169 | 4155 ft | 34 kts | 96° |
| 2026-04-28 19:53 | -18.79758 | 47.48194 | 4154 ft | 5 kts | 265° |
| 2026-04-28 19:53 | -18.79768 | 47.48149 | 4156 ft | 8 kts | 245° |
| 2026-04-28 19:54 | -18.79804 | 47.48118 | 4157 ft | 8 kts | 211° |
| 2026-04-28 19:54 | -18.79856 | 47.48101 | 4156 ft | 8 kts | 201° |
| 2026-04-28 19:54 | -18.79883 | 47.48073 | 4157 ft | 5 kts | 237° |
| 2026-04-28 19:54 | -18.79887 | 47.48054 | 4157 ft | 2 kts | 259° |
| 2026-04-28 19:55 | -18.79888 | 47.48031 | 4158 ft | 0 kts | 276° |
| 2026-04-28 19:56 | -18.79882 | 47.47974 | 4159 ft | 21 kts | 278° |
| 2026-04-28 19:56 | -18.79850 | 47.47785 | 4165 ft | 26 kts | 279° |
| 2026-04-28 19:56 | -18.79863 | 47.47700 | 4167 ft | 4 kts | 136° |
| 2026-04-28 19:56 | -18.79887 | 47.47706 | 4166 ft | 4 kts | 183° |
| 2026-04-28 19:57 | -18.79897 | 47.47705 | 4166 ft | 0 kts | 187° |